createdAt,value
2023-02-27T00:01:48.567Z,101827.59
2023-02-27T00:04:16.969Z,101833.69
2023-02-27T00:06:45.170Z,101824.19
2023-02-27T00:09:13.464Z,101825.03
2023-02-27T00:11:43.383Z,101819.09
2023-02-27T00:14:11.821Z,101827.66
2023-02-27T00:16:40.057Z,101821.66
2023-02-27T00:19:10.196Z,101824.28
2023-02-27T00:21:38.431Z,101821.66
2023-02-27T00:24:07.718Z,101826.00
2023-02-27T00:26:36.699Z,101829.38
2023-02-27T00:29:05.490Z,101832.03
2023-02-27T00:31:34.768Z,101822.63
2023-02-27T00:34:04.171Z,101821.81
2023-02-27T00:36:33.838Z,101829.66
2023-02-27T00:39:03.336Z,101821.09
2023-02-27T00:41:31.623Z,101828.81
2023-02-27T00:44:00.279Z,101839.06
2023-02-27T00:46:28.544Z,101828.75
2023-02-27T00:48:56.754Z,101837.28
2023-02-27T00:51:27.260Z,101841.50
2023-02-27T00:53:58.391Z,101845.75
2023-02-27T00:56:26.973Z,101847.38
2023-02-27T00:58:55.592Z,101845.59
2023-02-27T01:01:24.072Z,101843.78
2023-02-27T01:03:52.560Z,101843.00
2023-02-27T01:06:20.741Z,101842.09
2023-02-27T01:08:49.135Z,101841.34
2023-02-27T01:11:18.862Z,101840.50
2023-02-27T01:13:47.361Z,101843.06
2023-02-27T01:16:15.890Z,101833.69
2023-02-27T01:18:44.179Z,101838.81
2023-02-27T01:21:12.488Z,101829.34
2023-02-27T01:23:40.842Z,101832.78
2023-02-27T01:26:09.238Z,101829.31
2023-02-27T01:28:38.901Z,101836.06
2023-02-27T01:31:07.664Z,101828.31
2023-02-27T01:33:35.893Z,101832.59
2023-02-27T01:36:04.270Z,101831.72
2023-02-27T01:38:32.470Z,101827.41
2023-02-27T01:41:02.052Z,101835.97
2023-02-27T01:43:30.283Z,101834.28
2023-02-27T01:46:00.835Z,101828.28
2023-02-27T01:48:34.552Z,101829.06
2023-02-27T01:51:06.171Z,101827.38
2023-02-27T01:53:36.232Z,101834.09
2023-02-27T01:56:11.370Z,101829.81
2023-02-27T01:58:40.321Z,101837.47
2023-02-27T02:01:10.317Z,101829.72
2023-02-27T02:03:45.038Z,101825.47
2023-02-27T02:06:14.089Z,101824.56
2023-02-27T02:08:45.576Z,101823.69
2023-02-27T02:11:16.184Z,101822.81
2023-02-27T02:13:47.065Z,101825.34
2023-02-27T02:16:30.660Z,101820.19
2023-02-27T02:19:08.035Z,101830.38
2023-02-27T02:22:15.276Z,101825.16
2023-02-27T02:25:16.252Z,101828.56
2023-02-27T02:28:03.066Z,101827.69
2023-02-27T02:30:53.815Z,101826.78
2023-02-27T02:34:10.002Z,101833.59
2023-02-27T02:37:25.446Z,101827.53
2023-02-27T02:40:17.581Z,101817.34
2023-02-27T02:42:53.874Z,101827.63
2023-02-27T02:45:32.045Z,101821.69
2023-02-27T02:48:13.396Z,101821.69
2023-02-27T02:50:49.552Z,101816.59
2023-02-27T02:53:36.148Z,101824.28
2023-02-27T02:56:12.015Z,101814.03
2023-02-27T02:58:49.076Z,101828.50
2023-02-27T03:01:19.780Z,101811.44
2023-02-27T03:03:54.517Z,101817.44
2023-02-27T03:06:29.663Z,101812.31
2023-02-27T03:09:04.638Z,101813.13
2023-02-27T03:11:39.414Z,101805.44
2023-02-27T03:14:12.438Z,101801.94
2023-02-27T03:16:44.185Z,101804.34
2023-02-27T03:19:18.671Z,101799.22
2023-02-27T03:21:51.479Z,101806.78
2023-02-27T03:24:24.790Z,101802.53
2023-02-27T03:26:57.269Z,101797.41
2023-02-27T03:29:44.875Z,101801.63
2023-02-27T03:32:18.966Z,101804.31
2023-02-27T03:34:48.652Z,101806.09
2023-02-27T03:37:32.935Z,101802.72
2023-02-27T03:40:09.291Z,101812.91
2023-02-27T03:42:44.087Z,101816.34
2023-02-27T03:45:32.476Z,101811.25
2023-02-27T03:48:01.499Z,101808.78
2023-02-27T03:50:30.457Z,101800.28
2023-02-27T03:52:59.068Z,101813.03
2023-02-27T03:55:34.163Z,101808.06
2023-02-27T03:58:04.102Z,101803.78
2023-02-27T04:00:33.257Z,101788.44
2023-02-27T04:03:03.037Z,101794.41
2023-02-27T04:05:32.773Z,101791.78
2023-02-27T04:08:27.048Z,101791.72
2023-02-27T04:11:09.383Z,101787.47
2023-02-27T04:13:48.772Z,101784.91
2023-02-27T04:16:47.917Z,101784.84
2023-02-27T04:19:34.527Z,101790.81
2023-02-27T04:22:14.058Z,101791.69
2023-02-27T04:24:53.511Z,101791.78
2023-02-27T04:27:32.618Z,101806.41
2023-02-27T04:30:14.539Z,101800.56
2023-02-27T04:32:49.158Z,101807.53
2023-02-27T04:35:23.788Z,101799.09
2023-02-27T04:37:59.706Z,101794.84
2023-02-27T04:40:34.935Z,101790.53
2023-02-27T04:43:08.028Z,101786.19
2023-02-27T04:45:41.540Z,101781.84
2023-02-27T04:48:17.084Z,101787.75
2023-02-27T04:50:50.265Z,101789.38
2023-02-27T04:53:23.674Z,101791.03
2023-02-27T04:55:56.485Z,101799.59
2023-02-27T04:58:29.778Z,101808.00
2023-02-27T05:01:04.350Z,101816.56
2023-02-27T05:03:36.696Z,101822.56
2023-02-27T05:06:05.271Z,101820.03
2023-02-27T05:08:40.000Z,101812.47
2023-02-27T05:11:12.409Z,101811.69
2023-02-27T05:13:47.822Z,101806.56
2023-02-27T05:16:24.811Z,101805.72
2023-02-27T05:18:53.165Z,101795.41
2023-02-27T05:21:29.162Z,101796.19
2023-02-27T05:24:08.005Z,101797.88
2023-02-27T05:26:48.408Z,101802.94
2023-02-27T05:29:25.218Z,101808.84
2023-02-27T05:32:00.154Z,101806.22
2023-02-27T05:34:34.710Z,101805.31
2023-02-27T05:37:09.042Z,101811.22
2023-02-27T05:39:41.105Z,101817.19
2023-02-27T05:42:15.186Z,101817.16
2023-02-27T05:44:48.935Z,101811.91
2023-02-27T05:47:21.939Z,101807.56
2023-02-27T05:49:54.598Z,101818.53
2023-02-27T05:52:26.646Z,101812.38
2023-02-27T05:55:00.751Z,101816.59
2023-02-27T05:57:34.795Z,101818.22
2023-02-27T06:00:09.521Z,101809.63
2023-02-27T06:02:43.785Z,101809.63
2023-02-27T06:05:16.389Z,101812.19
2023-02-27T06:07:44.763Z,101815.66
2023-02-27T06:10:16.053Z,101817.38
2023-02-27T06:12:44.610Z,101819.13
2023-02-27T06:15:13.686Z,101820.06
2023-02-27T06:17:43.287Z,101815.81
2023-02-27T06:20:12.960Z,101814.22
2023-02-27T06:22:41.402Z,101808.41
2023-02-27T06:25:10.711Z,101806.84
2023-02-27T06:27:39.012Z,101795.84
2023-02-27T06:30:08.614Z,101804.53
2023-02-27T06:32:37.166Z,101806.31
2023-02-27T06:35:08.030Z,101810.66
2023-02-27T06:37:36.304Z,101800.44
2023-02-27T06:40:06.038Z,101802.16
2023-02-27T06:42:34.360Z,101811.53
2023-02-27T06:45:02.761Z,101808.06
2023-02-27T06:47:31.008Z,101814.91
2023-02-27T06:49:59.333Z,101817.44
2023-02-27T06:52:29.620Z,101813.97
2023-02-27T06:54:58.524Z,101815.66
2023-02-27T06:57:27.145Z,101811.44
2023-02-27T06:59:55.436Z,101823.38
2023-02-27T07:02:25.702Z,101819.13
2023-02-27T07:04:54.563Z,101825.94
2023-02-27T07:07:32.250Z,101826.81
2023-02-27T07:10:06.924Z,101825.13
2023-02-27T07:12:35.688Z,101831.06
2023-02-27T07:15:04.785Z,101841.38
2023-02-27T07:17:33.095Z,101844.06
2023-02-27T07:20:01.730Z,101840.69
2023-02-27T07:22:30.235Z,101845.81
2023-02-27T07:24:58.500Z,101844.16
2023-02-27T07:27:28.214Z,101846.75
2023-02-27T07:29:56.524Z,101841.63
2023-02-27T07:32:25.115Z,101845.97
2023-02-27T07:34:53.366Z,101846.06
2023-02-27T07:37:21.670Z,101853.91
2023-02-27T07:39:49.901Z,101850.72
2023-02-27T07:42:18.139Z,101835.59
2023-02-27T07:44:47.821Z,101841.69
2023-02-27T07:47:17.749Z,101839.94
2023-02-27T07:49:46.308Z,101839.00
2023-02-27T07:52:14.591Z,101838.84
2023-02-27T07:54:42.898Z,101836.25
2023-02-27T07:57:11.511Z,101832.97
2023-02-27T07:59:39.820Z,101844.16
2023-02-27T08:02:10.733Z,101843.53
2023-02-27T08:04:39.552Z,101851.34
2023-02-27T08:07:08.274Z,101859.03
2023-02-27T08:09:36.585Z,101860.66
2023-02-27T08:12:05.072Z,101863.19
2023-02-27T08:14:33.376Z,101863.09
2023-02-27T08:17:01.700Z,101866.47
2023-02-27T08:19:31.694Z,101869.00
2023-02-27T08:22:00.013Z,101866.47
2023-02-27T08:24:28.384Z,101862.41
2023-02-27T08:26:57.408Z,101861.13
2023-02-27T08:29:25.757Z,101847.94
2023-02-27T08:31:54.321Z,101846.75
2023-02-27T08:34:22.755Z,101844.34
2023-02-27T08:36:52.872Z,101847.94
2023-02-27T08:39:24.413Z,101844.50
2023-02-27T08:41:52.984Z,101859.91
2023-02-27T08:44:22.035Z,101865.75
2023-02-27T08:46:50.336Z,101883.50
2023-02-27T08:49:21.467Z,101897.00
2023-02-27T08:51:50.014Z,101888.19
2023-02-27T08:54:20.735Z,101880.50
2023-02-27T08:56:49.388Z,101881.50
2023-02-27T08:59:17.878Z,101875.69
2023-02-27T09:01:46.314Z,101887.81
2023-02-27T09:04:14.721Z,101881.88
2023-02-27T09:06:43.042Z,101892.25
2023-02-27T09:09:11.550Z,101878.59
2023-02-27T09:11:41.566Z,101887.47
2023-02-27T09:14:09.916Z,101878.16
2023-02-27T09:16:38.233Z,101875.47
2023-02-27T09:19:07.178Z,101881.03
2023-02-27T09:21:37.477Z,101877.78
2023-02-27T09:24:17.575Z,101874.94
2023-02-27T09:26:49.176Z,101869.19
2023-02-27T09:29:17.890Z,101875.47
2023-02-27T09:31:46.806Z,101884.22
2023-02-27T09:34:15.192Z,101879.91
2023-02-27T09:36:43.582Z,101881.63
2023-02-27T09:39:12.369Z,101889.28
2023-02-27T09:41:53.794Z,101894.41
2023-02-27T09:44:46.123Z,101878.91
2023-02-27T09:47:20.484Z,101890.03
2023-02-27T09:49:58.463Z,101892.50
2023-02-27T09:52:27.534Z,101890.94
2023-02-27T09:54:56.100Z,101887.56
2023-02-27T09:57:35.949Z,101893.66
2023-02-27T10:00:10.072Z,101897.97
2023-02-27T10:02:55.899Z,101898.81
2023-02-27T10:05:32.838Z,101894.50
2023-02-27T10:08:10.788Z,101886.78
2023-02-27T10:10:44.927Z,101890.25
2023-02-27T10:13:38.034Z,101889.38
2023-02-27T10:16:08.253Z,101880.56
2023-02-27T10:18:52.282Z,101871.16
2023-02-27T10:21:25.125Z,101862.09
2023-02-27T10:23:57.418Z,101865.00
2023-02-27T10:26:30.187Z,101888.66
2023-02-27T10:29:03.705Z,101880.53
2023-02-27T10:31:36.091Z,101891.91
2023-02-27T10:34:04.422Z,101894.50
2023-02-27T10:36:34.701Z,101886.75
2023-02-27T10:39:08.672Z,101895.34
2023-02-27T10:41:39.912Z,101889.31
2023-02-27T10:44:15.635Z,101882.41
2023-02-27T10:46:43.964Z,101890.16
2023-02-27T10:49:18.856Z,101885.00
2023-02-27T10:51:47.634Z,101867.03
2023-02-27T10:54:25.072Z,101867.72
2023-02-27T10:56:55.894Z,101875.22
2023-02-27T10:59:29.930Z,101875.25
2023-02-27T11:02:00.495Z,101864.88
2023-02-27T11:04:33.336Z,101858.06
2023-02-27T11:07:05.239Z,101864.31
2023-02-27T11:09:35.440Z,101869.59
2023-02-27T11:12:20.137Z,101879.03
2023-02-27T11:14:55.311Z,101884.16
2023-02-27T11:17:29.560Z,101891.91
2023-02-27T11:19:59.458Z,101886.72
2023-02-27T11:22:29.865Z,101875.56
2023-02-27T11:25:21.416Z,101863.56
2023-02-27T11:27:52.316Z,101857.53
2023-02-27T11:30:32.211Z,101854.97
2023-02-27T11:33:02.934Z,101846.31
2023-02-27T11:35:34.483Z,101851.44
2023-02-27T11:38:05.855Z,101860.94
2023-02-27T11:40:39.462Z,101872.13
2023-02-27T11:43:17.503Z,101858.41
2023-02-27T11:46:05.860Z,101862.69
2023-02-27T11:48:43.492Z,101849.66
2023-02-27T11:51:33.608Z,101861.00
2023-02-27T11:54:16.381Z,101866.13
2023-02-27T11:56:45.841Z,101853.94
2023-02-27T11:59:25.377Z,101849.59
2023-02-27T12:02:01.120Z,101849.69
2023-02-27T12:04:40.967Z,101845.47
2023-02-27T12:07:18.660Z,101827.47
2023-02-27T12:09:53.133Z,101830.03
2023-02-27T12:12:25.306Z,101855.81
2023-02-27T12:15:02.419Z,101827.41
2023-02-27T12:17:41.248Z,101829.09
2023-02-27T12:20:26.472Z,101827.22
2023-02-27T12:22:56.479Z,101815.16
2023-02-27T12:25:36.090Z,101819.50
2023-02-27T12:28:14.463Z,101809.09
2023-02-27T12:30:48.939Z,101806.50
2023-02-27T12:33:29.489Z,101809.09
2023-02-27T12:36:03.613Z,101804.84
2023-02-27T12:38:34.461Z,101816.84
2023-02-27T12:41:17.367Z,101840.19
2023-02-27T12:43:54.600Z,101795.44
2023-02-27T12:46:32.319Z,101803.97
2023-02-27T12:49:17.633Z,101789.34
2023-02-27T12:51:55.211Z,101801.28
2023-02-27T12:54:37.079Z,101815.84
2023-02-27T12:57:23.897Z,101787.56
2023-02-27T13:00:16.417Z,101805.78
2023-02-27T13:02:54.782Z,101792.09
2023-02-27T13:05:50.526Z,101781.75
2023-02-27T13:08:48.464Z,101780.75
2023-02-27T13:11:37.787Z,101779.75
2023-02-27T13:14:12.569Z,101800.50
2023-02-27T13:16:45.358Z,101774.72
2023-02-27T13:19:16.941Z,101770.28
2023-02-27T13:21:53.388Z,101796.09
2023-02-27T13:24:27.180Z,101771.13
2023-02-27T13:27:01.916Z,101760.69
2023-02-27T13:29:39.811Z,101750.22
2023-02-27T13:32:32.759Z,101738.97
2023-02-27T13:35:21.454Z,101748.38
2023-02-27T13:38:01.704Z,101754.50
2023-02-27T13:40:33.645Z,101739.13
2023-02-27T13:43:07.347Z,101741.97
2023-02-27T13:45:54.332Z,101754.22
2023-02-27T13:48:41.227Z,101759.34
2023-02-27T13:51:46.982Z,101749.84
2023-02-27T13:54:22.034Z,101752.41
2023-02-27T13:56:52.556Z,101742.91
2023-02-27T13:59:24.649Z,101747.28
2023-02-27T14:01:55.925Z,101742.03
2023-02-27T14:04:27.455Z,101753.19
2023-02-27T14:07:01.745Z,101745.53
2023-02-27T14:09:39.173Z,101739.56
2023-02-27T14:12:30.921Z,101739.50
2023-02-27T14:15:46.527Z,101722.94
2023-02-27T14:18:47.737Z,101729.72
2023-02-27T14:21:56.583Z,101754.63
2023-02-27T14:24:30.084Z,101752.78
2023-02-27T14:27:01.370Z,101744.19
2023-02-27T14:29:33.664Z,101734.66
2023-02-27T14:32:08.817Z,101744.06
2023-02-27T14:34:39.439Z,101760.38
2023-02-27T14:37:12.403Z,101759.56
2023-02-27T14:39:41.753Z,101768.28
2023-02-27T14:42:33.023Z,101793.31
2023-02-27T14:45:01.662Z,101759.91
2023-02-27T14:47:33.152Z,101757.28
2023-02-27T14:50:04.128Z,101755.59
2023-02-27T14:52:41.990Z,101784.06
2023-02-27T14:55:18.001Z,101759.94
2023-02-27T14:57:59.152Z,101758.97
2023-02-27T15:00:35.192Z,101758.06
2023-02-27T15:03:13.429Z,101770.09
2023-02-27T15:05:41.994Z,101757.19
2023-02-27T15:08:16.636Z,101745.97
2023-02-27T15:10:45.756Z,101761.69
2023-02-27T15:13:33.866Z,101779.91
2023-02-27T15:16:35.906Z,101761.78
2023-02-27T15:19:16.991Z,101785.78
2023-02-27T15:21:49.743Z,101771.19
2023-02-27T15:24:27.782Z,101768.59
2023-02-27T15:27:01.144Z,101765.06
2023-02-27T15:29:35.471Z,101765.88
2023-02-27T15:32:05.693Z,101768.38
2023-02-27T15:34:36.433Z,101783.97
2023-02-27T15:37:07.243Z,101780.69
2023-02-27T15:39:36.941Z,101778.25
2023-02-27T15:42:07.134Z,101784.34
2023-02-27T15:44:44.295Z,101781.75
2023-02-27T15:47:16.983Z,101767.00
2023-02-27T15:49:45.436Z,101783.25
2023-02-27T15:52:17.882Z,101783.34
2023-02-27T15:54:48.462Z,101804.13
2023-02-27T15:57:17.043Z,101781.78
2023-02-27T15:59:46.765Z,101772.22
2023-02-27T16:02:20.043Z,101790.34
2023-02-27T16:04:48.964Z,101781.81
2023-02-27T16:07:21.573Z,101779.19
2023-02-27T16:09:53.872Z,101779.13
2023-02-27T16:12:30.944Z,101786.91
2023-02-27T16:15:21.782Z,101783.53
2023-02-27T16:17:59.169Z,101776.66
2023-02-27T16:20:37.584Z,101776.59
2023-02-27T16:23:07.335Z,101780.13
2023-02-27T16:25:35.754Z,101782.72
2023-02-27T16:28:04.250Z,101789.56
2023-02-27T16:30:34.004Z,101769.75
2023-02-27T16:33:03.061Z,101785.28
2023-02-27T16:35:32.012Z,101793.88
2023-02-27T16:38:03.656Z,101793.94
2023-02-27T16:40:33.967Z,101795.66
2023-02-27T16:43:02.477Z,101796.50
2023-02-27T16:45:32.115Z,101800.78
2023-02-27T16:48:02.970Z,101807.66
2023-02-27T16:50:36.303Z,101809.41
2023-02-27T16:53:04.514Z,101812.84
2023-02-27T16:55:34.007Z,101817.97
2023-02-27T16:58:02.312Z,101836.06
2023-02-27T17:00:30.987Z,101827.44
2023-02-27T17:02:59.211Z,101823.16
2023-02-27T17:05:28.884Z,101827.47
2023-02-27T17:07:57.072Z,101824.91
2023-02-27T17:10:25.698Z,101828.28
2023-02-27T17:12:53.976Z,101834.31
2023-02-27T17:15:22.540Z,101823.16
2023-02-27T17:17:50.994Z,101837.75
2023-02-27T17:20:19.635Z,101830.88
2023-02-27T17:22:49.238Z,101850.66
2023-02-27T17:25:17.519Z,101843.75
2023-02-27T17:27:46.232Z,101839.44
2023-02-27T17:30:15.509Z,101836.84
2023-02-27T17:32:43.737Z,101845.44
2023-02-27T17:35:12.525Z,101848.88
2023-02-27T17:37:40.747Z,101849.69
2023-02-27T17:40:12.351Z,101860.00
2023-02-27T17:42:41.240Z,101860.84
2023-02-27T17:45:10.813Z,101853.97
2023-02-27T17:47:39.103Z,101868.56
2023-02-27T17:50:07.616Z,101865.06
2023-02-27T17:52:36.774Z,101865.91
2023-02-27T17:55:05.959Z,101876.19
2023-02-27T17:57:38.064Z,101871.00
2023-02-27T18:00:09.072Z,101872.69
2023-02-27T18:02:38.030Z,101871.84
2023-02-27T18:05:06.863Z,101871.81
2023-02-27T18:07:35.638Z,101879.50
2023-02-27T18:10:05.498Z,101881.19
2023-02-27T18:12:34.415Z,101887.19
2023-02-27T18:15:05.870Z,101889.72
2023-02-27T18:17:34.652Z,101882.81
2023-02-27T18:20:02.963Z,101886.22
2023-02-27T18:22:33.233Z,101893.94
2023-02-27T18:25:01.615Z,101897.34
2023-02-27T18:27:30.519Z,101905.06
2023-02-27T18:29:59.304Z,101903.28
2023-02-27T18:32:29.104Z,101909.25
2023-02-27T18:34:57.378Z,101916.09
2023-02-27T18:37:25.635Z,101918.66
2023-02-27T18:39:54.221Z,101911.75
2023-02-27T18:42:22.488Z,101912.59
2023-02-27T18:44:50.790Z,101929.72
2023-02-27T18:47:19.072Z,101926.25
2023-02-27T18:49:48.683Z,101925.38
2023-02-27T18:52:17.223Z,101927.94
2023-02-27T18:54:45.432Z,101926.19
2023-02-27T18:57:13.773Z,101923.59
2023-02-27T18:59:42.081Z,101929.59
2023-02-27T19:02:15.912Z,101931.25
2023-02-27T19:04:44.335Z,101942.34
2023-02-27T19:07:14.496Z,101941.47
2023-02-27T19:09:43.267Z,101942.31
2023-02-27T19:12:11.919Z,101942.31
2023-02-27T19:14:40.703Z,101932.00
2023-02-27T19:17:09.026Z,101943.16
2023-02-27T19:19:37.489Z,101946.59
2023-02-27T19:22:05.809Z,101944.00
2023-02-27T19:24:35.452Z,101944.88
2023-02-27T19:27:03.824Z,101940.50
2023-02-27T19:29:32.323Z,101943.97
2023-02-27T19:32:02.264Z,101949.00
2023-02-27T19:34:30.643Z,101954.16
2023-02-27T19:36:58.997Z,101948.16
2023-02-27T19:39:27.282Z,101953.25
2023-02-27T19:41:57.604Z,101956.63
2023-02-27T19:44:26.715Z,101947.19
2023-02-27T19:46:55.122Z,101953.16
2023-02-27T19:49:23.378Z,101950.59
2023-02-27T19:51:52.352Z,101958.31
2023-02-27T19:54:20.651Z,101964.31
2023-02-27T19:56:49.222Z,101969.41
2023-02-27T19:59:19.029Z,101974.56
2023-02-27T20:01:47.661Z,101981.38
2023-02-27T20:04:17.712Z,101972.75
2023-02-27T20:06:47.832Z,101973.63
2023-02-27T20:09:20.463Z,101971.84
2023-02-27T20:11:49.115Z,101983.88
2023-02-27T20:14:19.340Z,101981.28
2023-02-27T20:16:47.801Z,101983.00
2023-02-27T20:19:17.892Z,101983.94
2023-02-27T20:21:47.204Z,101984.72
2023-02-27T20:24:18.268Z,101979.59
2023-02-27T20:26:48.477Z,101978.72
2023-02-27T20:29:20.400Z,101977.00
2023-02-27T20:31:50.906Z,101982.09
2023-02-27T20:34:22.075Z,101977.81
2023-02-27T20:36:51.178Z,101987.28
2023-02-27T20:39:20.514Z,101987.31
2023-02-27T20:41:49.336Z,101990.69
2023-02-27T20:44:17.702Z,101996.72
2023-02-27T20:46:49.436Z,102005.19
2023-02-27T20:49:18.480Z,102002.56
2023-02-27T20:51:47.045Z,102006.81
2023-02-27T20:54:20.613Z,102016.19
2023-02-27T20:56:51.976Z,102010.16
2023-02-27T20:59:22.449Z,102011.88
2023-02-27T21:01:52.729Z,102012.66
2023-02-27T21:04:22.657Z,102025.50
2023-02-27T21:06:51.513Z,102028.00
2023-02-27T21:09:20.382Z,102022.00
2023-02-27T21:11:48.696Z,102021.91
2023-02-27T21:14:16.976Z,102017.59
2023-02-27T21:16:45.179Z,102021.00
2023-02-27T21:19:15.200Z,102025.25
2023-02-27T21:21:43.521Z,102026.06
2023-02-27T21:24:11.810Z,102022.56
2023-02-27T21:26:40.746Z,102027.66
2023-02-27T21:29:11.035Z,102015.66
2023-02-27T21:31:41.032Z,102025.03
2023-02-27T21:34:16.921Z,102020.72
2023-02-27T21:36:47.766Z,102022.38
2023-02-27T21:39:17.790Z,102023.97
2023-02-27T21:41:46.612Z,102021.31
2023-02-27T21:44:17.460Z,102029.88
2023-02-27T21:46:46.352Z,102030.72
2023-02-27T21:49:17.300Z,102031.53
2023-02-27T21:51:47.438Z,102036.66
2023-02-27T21:54:16.703Z,102033.19
2023-02-27T21:56:46.354Z,102025.44
2023-02-27T21:59:15.167Z,102028.78
2023-02-27T22:01:47.283Z,102038.19
2023-02-27T22:04:16.142Z,102031.31
2023-02-27T22:06:44.522Z,102031.25
2023-02-27T22:09:14.623Z,102024.38
2023-02-27T22:11:43.222Z,102020.91
2023-02-27T22:14:13.030Z,102027.72
2023-02-27T22:16:41.991Z,102024.25
2023-02-27T22:19:12.341Z,102031.91
2023-02-27T22:21:41.216Z,102034.47
2023-02-27T22:24:09.753Z,102036.13
2023-02-27T22:26:39.950Z,102032.69
2023-02-27T22:29:08.274Z,102040.31
2023-02-27T22:31:39.111Z,102035.94
2023-02-27T22:34:12.154Z,102037.53
2023-02-27T22:36:41.751Z,102031.44
2023-02-27T22:39:10.172Z,102035.59
2023-02-27T22:41:41.230Z,102030.44
2023-02-27T22:44:10.910Z,102030.41
2023-02-27T22:46:41.312Z,102031.28
2023-02-27T22:49:12.915Z,102028.81
2023-02-27T22:51:41.328Z,102030.53
2023-02-27T22:54:11.303Z,102030.56
2023-02-27T22:56:41.897Z,102031.44
2023-02-27T22:59:11.040Z,102040.00
2023-02-27T23:01:39.591Z,102034.94
2023-02-27T23:04:11.529Z,102040.94
2023-02-27T23:06:41.125Z,102041.91
2023-02-27T23:09:13.638Z,102033.50
2023-02-27T23:11:43.652Z,102037.94
2023-02-27T23:14:13.148Z,102035.56
2023-02-27T23:16:45.616Z,102042.44
2023-02-27T23:19:15.646Z,102045.16
2023-02-27T23:21:44.341Z,102051.25
2023-02-27T23:24:14.656Z,102041.91
2023-02-27T23:26:46.573Z,102042.81
2023-02-27T23:29:15.270Z,102041.94
2023-02-27T23:31:43.783Z,102040.28
2023-02-27T23:34:12.526Z,102038.59
2023-02-27T23:36:40.968Z,102039.50
2023-02-27T23:39:10.025Z,102043.78
2023-02-27T23:41:38.258Z,102048.13
2023-02-27T23:44:25.570Z,102048.16
2023-02-27T23:46:53.799Z,102052.47
2023-02-27T23:49:22.300Z,102049.84
2023-02-27T23:51:50.614Z,102059.25
2023-02-27T23:54:19.627Z,102062.66
2023-02-27T23:56:48.668Z,102055.81
2023-02-27T23:59:18.404Z,102068.59
